sensor_id;sensor_type;location;lat;lon;timestamp;P1;durP1;ratioP1;P2;durP2;ratioP2
59880;SDS011;45751;51.380;10.326;2022-09-27T00:00:45;3.20;;;0.90;;
59880;SDS011;45751;51.380;10.326;2022-09-27T00:03:12;2.97;;;0.88;;
59880;SDS011;45751;51.380;10.326;2022-09-27T00:05:39;2.55;;;0.75;;
59880;SDS011;45751;51.380;10.326;2022-09-27T00:08:06;3.28;;;0.73;;
59880;SDS011;45751;51.380;10.326;2022-09-27T00:10:32;3.20;;;0.85;;
59880;SDS011;45751;51.380;10.326;2022-09-27T00:12:59;2.75;;;0.60;;
59880;SDS011;45751;51.380;10.326;2022-09-27T00:15:26;3.97;;;0.95;;
59880;SDS011;45751;51.380;10.326;2022-09-27T00:17:53;2.08;;;0.60;;
59880;SDS011;45751;51.380;10.326;2022-09-27T00:20:20;2.30;;;0.60;;
59880;SDS011;45751;51.380;10.326;2022-09-27T00:22:47;3.15;;;0.75;;
59880;SDS011;45751;51.380;10.326;2022-09-27T00:25:15;2.28;;;0.60;;
59880;SDS011;45751;51.380;10.326;2022-09-27T00:27:42;2.55;;;0.63;;
59880;SDS011;45751;51.380;10.326;2022-09-27T00:30:09;2.90;;;0.63;;
59880;SDS011;45751;51.380;10.326;2022-09-27T00:32:37;2.65;;;0.68;;
59880;SDS011;45751;51.380;10.326;2022-09-27T00:35:03;2.95;;;0.70;;
59880;SDS011;45751;51.380;10.326;2022-09-27T00:37:30;2.33;;;0.70;;
59880;SDS011;45751;51.380;10.326;2022-09-27T00:39:58;3.55;;;0.90;;
59880;SDS011;45751;51.380;10.326;2022-09-27T00:42:25;2.00;;;0.60;;
59880;SDS011;45751;51.380;10.326;2022-09-27T00:47:31;3.13;;;0.90;;
59880;SDS011;45751;51.380;10.326;2022-09-27T00:52:50;2.80;;;0.80;;
59880;SDS011;45751;51.380;10.326;2022-09-27T00:55:41;3.55;;;0.90;;
59880;SDS011;45751;51.380;10.326;2022-09-27T00:58:22;2.83;;;0.70;;
59880;SDS011;45751;51.380;10.326;2022-09-27T01:00:55;2.22;;;0.65;;
59880;SDS011;45751;51.380;10.326;2022-09-27T01:03:36;2.35;;;0.63;;
59880;SDS011;45751;51.380;10.326;2022-09-27T01:06:18;2.63;;;0.75;;
59880;SDS011;45751;51.380;10.326;2022-09-27T01:08:47;1.88;;;0.63;;
59880;SDS011;45751;51.380;10.326;2022-09-27T01:11:38;2.25;;;0.57;;
59880;SDS011;45751;51.380;10.326;2022-09-27T01:17:16;1.63;;;0.50;;
59880;SDS011;45751;51.380;10.326;2022-09-27T01:19:56;1.50;;;0.55;;
59880;SDS011;45751;51.380;10.326;2022-09-27T01:22:29;2.72;;;0.75;;
59880;SDS011;45751;51.380;10.326;2022-09-27T01:34:06;2.53;;;0.80;;
59880;SDS011;45751;51.380;10.326;2022-09-27T01:36:40;3.28;;;0.75;;
59880;SDS011;45751;51.380;10.326;2022-09-27T01:44:54;2.40;;;0.70;;
59880;SDS011;45751;51.380;10.326;2022-09-27T01:48:13;2.45;;;0.80;;
59880;SDS011;45751;51.380;10.326;2022-09-27T01:50:41;1.80;;;0.68;;
59880;SDS011;45751;51.380;10.326;2022-09-27T01:53:27;2.25;;;0.57;;
59880;SDS011;45751;51.380;10.326;2022-09-27T01:56:42;2.72;;;0.65;;
59880;SDS011;45751;51.380;10.326;2022-09-27T01:59:22;2.00;;;0.50;;
59880;SDS011;45751;51.380;10.326;2022-09-27T02:02:06;2.03;;;0.60;;
59880;SDS011;45751;51.380;10.326;2022-09-27T02:04:55;5.28;;;0.80;;
59880;SDS011;45751;51.380;10.326;2022-09-27T02:07:31;2.90;;;0.80;;
59880;SDS011;45751;51.380;10.326;2022-09-27T02:10:06;2.53;;;0.70;;
59880;SDS011;45751;51.380;10.326;2022-09-27T02:13:23;3.22;;;0.85;;
59880;SDS011;45751;51.380;10.326;2022-09-27T02:15:54;4.65;;;1.40;;
59880;SDS011;45751;51.380;10.326;2022-09-27T02:18:41;4.28;;;1.10;;
59880;SDS011;45751;51.380;10.326;2022-09-27T02:21:19;3.72;;;1.10;;
59880;SDS011;45751;51.380;10.326;2022-09-27T02:23:53;5.22;;;1.33;;
59880;SDS011;45751;51.380;10.326;2022-09-27T02:29:10;5.13;;;1.40;;
59880;SDS011;45751;51.380;10.326;2022-09-27T02:31:47;4.43;;;1.13;;
59880;SDS011;45751;51.380;10.326;2022-09-27T02:34:17;4.00;;;1.08;;
59880;SDS011;45751;51.380;10.326;2022-09-27T02:36:47;4.40;;;1.08;;
59880;SDS011;45751;51.380;10.326;2022-09-27T02:39:16;3.90;;;1.27;;
59880;SDS011;45751;51.380;10.326;2022-09-27T02:41:43;4.75;;;1.45;;
59880;SDS011;45751;51.380;10.326;2022-09-27T02:44:11;4.30;;;1.17;;
59880;SDS011;45751;51.380;10.326;2022-09-27T02:58:57;7.10;;;1.67;;
59880;SDS011;45751;51.380;10.326;2022-09-27T03:02:05;5.43;;;1.55;;
59880;SDS011;45751;51.380;10.326;2022-09-27T03:05:03;4.03;;;1.50;;
59880;SDS011;45751;51.380;10.326;2022-09-27T03:07:33;5.38;;;1.75;;
59880;SDS011;45751;51.380;10.326;2022-09-27T03:10:00;5.63;;;1.77;;
59880;SDS011;45751;51.380;10.326;2022-09-27T03:12:27;5.18;;;1.58;;
59880;SDS011;45751;51.380;10.326;2022-09-27T03:14:58;5.75;;;1.88;;
59880;SDS011;45751;51.380;10.326;2022-09-27T03:17:48;5.68;;;1.27;;
59880;SDS011;45751;51.380;10.326;2022-09-27T03:20:54;5.60;;;1.60;;
59880;SDS011;45751;51.380;10.326;2022-09-27T03:23:23;4.63;;;1.55;;
59880;SDS011;45751;51.380;10.326;2022-09-27T03:25:50;4.35;;;1.25;;
59880;SDS011;45751;51.380;10.326;2022-09-27T03:28:17;6.22;;;1.60;;
59880;SDS011;45751;51.380;10.326;2022-09-27T03:30:45;4.15;;;1.17;;
59880;SDS011;45751;51.380;10.326;2022-09-27T03:33:32;3.50;;;1.10;;
59880;SDS011;45751;51.380;10.326;2022-09-27T03:36:04;4.80;;;1.42;;
59880;SDS011;45751;51.380;10.326;2022-09-27T03:38:32;4.90;;;1.23;;
59880;SDS011;45751;51.380;10.326;2022-09-27T03:40:59;6.40;;;1.30;;
59880;SDS011;45751;51.380;10.326;2022-09-27T03:43:26;4.97;;;1.45;;
59880;SDS011;45751;51.380;10.326;2022-09-27T03:45:57;4.85;;;1.58;;
59880;SDS011;45751;51.380;10.326;2022-09-27T03:48:24;5.68;;;1.85;;
59880;SDS011;45751;51.380;10.326;2022-09-27T03:50:53;6.60;;;1.75;;
59880;SDS011;45751;51.380;10.326;2022-09-27T03:53:20;5.88;;;1.55;;
59880;SDS011;45751;51.380;10.326;2022-09-27T03:55:47;4.50;;;1.50;;
59880;SDS011;45751;51.380;10.326;2022-09-27T03:58:14;4.20;;;1.20;;
59880;SDS011;45751;51.380;10.326;2022-09-27T04:00:41;4.18;;;1.17;;
59880;SDS011;45751;51.380;10.326;2022-09-27T04:03:09;5.40;;;1.50;;
59880;SDS011;45751;51.380;10.326;2022-09-27T04:05:57;4.93;;;1.35;;
59880;SDS011;45751;51.380;10.326;2022-09-27T04:08:34;4.43;;;1.30;;
59880;SDS011;45751;51.380;10.326;2022-09-27T04:11:03;4.85;;;1.30;;
59880;SDS011;45751;51.380;10.326;2022-09-27T04:13:30;5.63;;;1.63;;
59880;SDS011;45751;51.380;10.326;2022-09-27T04:15:58;5.60;;;1.65;;
59880;SDS011;45751;51.380;10.326;2022-09-27T04:18:48;5.15;;;1.42;;
59880;SDS011;45751;51.380;10.326;2022-09-27T04:21:50;5.15;;;1.48;;
59880;SDS011;45751;51.380;10.326;2022-09-27T04:24:17;5.70;;;1.73;;
59880;SDS011;45751;51.380;10.326;2022-09-27T04:27:13;7.80;;;2.20;;
59880;SDS011;45751;51.380;10.326;2022-09-27T04:29:41;6.78;;;2.20;;
59880;SDS011;45751;51.380;10.326;2022-09-27T04:32:31;8.75;;;2.00;;
59880;SDS011;45751;51.380;10.326;2022-09-27T04:35:16;5.75;;;1.90;;
59880;SDS011;45751;51.380;10.326;2022-09-27T04:38:02;7.90;;;2.10;;
59880;SDS011;45751;51.380;10.326;2022-09-27T04:40:29;5.40;;;1.20;;
59880;SDS011;45751;51.380;10.326;2022-09-27T04:42:58;5.00;;;1.58;;
59880;SDS011;45751;51.380;10.326;2022-09-27T04:45:25;6.63;;;1.65;;
59880;SDS011;45751;51.380;10.326;2022-09-27T04:47:53;5.32;;;1.70;;
59880;SDS011;45751;51.380;10.326;2022-09-27T04:50:20;5.57;;;1.65;;
59880;SDS011;45751;51.380;10.326;2022-09-27T04:53:00;7.20;;;2.10;;
59880;SDS011;45751;51.380;10.326;2022-09-27T04:55:27;6.55;;;2.53;;
59880;SDS011;45751;51.380;10.326;2022-09-27T04:57:54;8.02;;;1.90;;
59880;SDS011;45751;51.380;10.326;2022-09-27T05:00:20;6.00;;;1.70;;
59880;SDS011;45751;51.380;10.326;2022-09-27T05:02:54;5.55;;;1.30;;
59880;SDS011;45751;51.380;10.326;2022-09-27T05:05:36;4.82;;;1.20;;
59880;SDS011;45751;51.380;10.326;2022-09-27T05:08:03;4.05;;;0.98;;
59880;SDS011;45751;51.380;10.326;2022-09-27T05:10:50;4.20;;;1.20;;
59880;SDS011;45751;51.380;10.326;2022-09-27T05:13:18;5.22;;;1.20;;
59880;SDS011;45751;51.380;10.326;2022-09-27T05:15:45;6.85;;;1.40;;
59880;SDS011;45751;51.380;10.326;2022-09-27T05:18:36;3.63;;;1.13;;
59880;SDS011;45751;51.380;10.326;2022-09-27T05:21:22;3.97;;;1.17;;
59880;SDS011;45751;51.380;10.326;2022-09-27T05:23:48;4.22;;;0.95;;
59880;SDS011;45751;51.380;10.326;2022-09-27T05:26:15;4.00;;;1.02;;
59880;SDS011;45751;51.380;10.326;2022-09-27T05:28:42;3.80;;;1.08;;
59880;SDS011;45751;51.380;10.326;2022-09-27T05:31:09;4.30;;;1.23;;
59880;SDS011;45751;51.380;10.326;2022-09-27T05:33:37;4.70;;;1.00;;
59880;SDS011;45751;51.380;10.326;2022-09-27T05:36:29;3.50;;;0.80;;
59880;SDS011;45751;51.380;10.326;2022-09-27T05:38:55;3.92;;;1.00;;
59880;SDS011;45751;51.380;10.326;2022-09-27T05:41:25;3.38;;;0.75;;
59880;SDS011;45751;51.380;10.326;2022-09-27T05:43:52;3.50;;;0.93;;
59880;SDS011;45751;51.380;10.326;2022-09-27T05:46:19;3.38;;;0.73;;
59880;SDS011;45751;51.380;10.326;2022-09-27T05:48:46;2.25;;;0.85;;
59880;SDS011;45751;51.380;10.326;2022-09-27T05:51:13;5.25;;;0.93;;
59880;SDS011;45751;51.380;10.326;2022-09-27T05:53:40;2.53;;;0.80;;
59880;SDS011;45751;51.380;10.326;2022-09-27T05:56:16;3.47;;;0.80;;
59880;SDS011;45751;51.380;10.326;2022-09-27T05:59:03;3.60;;;1.08;;
59880;SDS011;45751;51.380;10.326;2022-09-27T06:01:50;3.40;;;0.80;;
59880;SDS011;45751;51.380;10.326;2022-09-27T06:04:43;6.85;;;0.82;;
59880;SDS011;45751;51.380;10.326;2022-09-27T06:07:39;2.55;;;0.70;;
59880;SDS011;45751;51.380;10.326;2022-09-27T06:10:16;3.22;;;0.93;;
59880;SDS011;45751;51.380;10.326;2022-09-27T06:12:44;3.33;;;0.98;;
59880;SDS011;45751;51.380;10.326;2022-09-27T06:15:27;2.45;;;0.80;;
59880;SDS011;45751;51.380;10.326;2022-09-27T06:17:55;2.45;;;0.80;;
59880;SDS011;45751;51.380;10.326;2022-09-27T06:20:22;2.53;;;0.80;;
59880;SDS011;45751;51.380;10.326;2022-09-27T06:22:49;3.60;;;1.42;;
59880;SDS011;45751;51.380;10.326;2022-09-27T06:25:17;3.53;;;0.90;;
59880;SDS011;45751;51.380;10.326;2022-09-27T06:28:01;2.75;;;0.80;;
59880;SDS011;45751;51.380;10.326;2022-09-27T06:30:31;2.70;;;0.80;;
59880;SDS011;45751;51.380;10.326;2022-09-27T06:33:06;2.70;;;0.80;;
59880;SDS011;45751;51.380;10.326;2022-09-27T06:35:38;2.83;;;0.80;;
59880;SDS011;45751;51.380;10.326;2022-09-27T06:38:06;3.20;;;0.80;;
59880;SDS011;45751;51.380;10.326;2022-09-27T06:40:39;1.63;;;0.60;;
59880;SDS011;45751;51.380;10.326;2022-09-27T06:43:19;3.40;;;0.90;;
59880;SDS011;45751;51.380;10.326;2022-09-27T06:46:05;3.63;;;0.90;;
59880;SDS011;45751;51.380;10.326;2022-09-27T06:48:50;6.32;;;0.98;;
59880;SDS011;45751;51.380;10.326;2022-09-27T06:51:18;3.13;;;0.90;;
59880;SDS011;45751;51.380;10.326;2022-09-27T06:53:47;1.95;;;0.65;;
59880;SDS011;45751;51.380;10.326;2022-09-27T06:56:14;5.97;;;1.00;;
59880;SDS011;45751;51.380;10.326;2022-09-27T06:58:47;3.15;;;0.90;;
59880;SDS011;45751;51.380;10.326;2022-09-27T07:01:41;3.25;;;0.80;;
59880;SDS011;45751;51.380;10.326;2022-09-27T07:04:27;2.83;;;0.80;;
59880;SDS011;45751;51.380;10.326;2022-09-27T07:07:03;1.38;;;0.55;;
59880;SDS011;45751;51.380;10.326;2022-09-27T07:09:36;2.83;;;0.77;;
59880;SDS011;45751;51.380;10.326;2022-09-27T07:12:06;2.85;;;0.65;;
59880;SDS011;45751;51.380;10.326;2022-09-27T07:14:33;1.88;;;0.73;;
59880;SDS011;45751;51.380;10.326;2022-09-27T07:17:02;1.38;;;0.60;;
59880;SDS011;45751;51.380;10.326;2022-09-27T07:19:34;3.22;;;0.65;;
59880;SDS011;45751;51.380;10.326;2022-09-27T07:22:01;2.33;;;0.70;;
59880;SDS011;45751;51.380;10.326;2022-09-27T07:24:29;1.35;;;0.50;;
59880;SDS011;45751;51.380;10.326;2022-09-27T07:26:56;3.38;;;0.60;;
59880;SDS011;45751;51.380;10.326;2022-09-27T07:29:25;3.53;;;0.90;;
59880;SDS011;45751;51.380;10.326;2022-09-27T07:31:52;2.90;;;0.80;;
59880;SDS011;45751;51.380;10.326;2022-09-27T07:34:19;3.70;;;0.90;;
59880;SDS011;45751;51.380;10.326;2022-09-27T07:36:46;3.83;;;1.10;;
59880;SDS011;45751;51.380;10.326;2022-09-27T07:39:13;3.65;;;1.00;;
59880;SDS011;45751;51.380;10.326;2022-09-27T07:41:41;2.28;;;0.65;;
59880;SDS011;45751;51.380;10.326;2022-09-27T07:44:10;2.43;;;0.70;;
59880;SDS011;45751;51.380;10.326;2022-09-27T07:46:55;3.25;;;0.98;;
59880;SDS011;45751;51.380;10.326;2022-09-27T07:49:27;2.38;;;0.80;;
59880;SDS011;45751;51.380;10.326;2022-09-27T07:52:00;3.20;;;0.80;;
59880;SDS011;45751;51.380;10.326;2022-09-27T07:54:52;4.38;;;1.20;;
59880;SDS011;45751;51.380;10.326;2022-09-27T07:57:45;2.38;;;0.70;;
59880;SDS011;45751;51.380;10.326;2022-09-27T08:00:13;7.43;;;1.38;;
59880;SDS011;45751;51.380;10.326;2022-09-27T08:02:44;5.80;;;1.63;;
59880;SDS011;45751;51.380;10.326;2022-09-27T08:05:12;6.00;;;1.40;;
59880;SDS011;45751;51.380;10.326;2022-09-27T08:07:40;5.88;;;1.67;;
59880;SDS011;45751;51.380;10.326;2022-09-27T08:10:07;6.03;;;1.42;;
59880;SDS011;45751;51.380;10.326;2022-09-27T08:12:35;4.85;;;0.90;;
59880;SDS011;45751;51.380;10.326;2022-09-27T08:15:03;3.17;;;1.48;;
59880;SDS011;45751;51.380;10.326;2022-09-27T08:17:31;3.78;;;0.95;;
59880;SDS011;45751;51.380;10.326;2022-09-27T08:20:13;4.63;;;1.27;;
59880;SDS011;45751;51.380;10.326;2022-09-27T08:23:03;5.43;;;1.38;;
59880;SDS011;45751;51.380;10.326;2022-09-27T08:28:24;3.38;;;1.02;;
59880;SDS011;45751;51.380;10.326;2022-09-27T08:31:09;3.45;;;1.08;;
59880;SDS011;45751;51.380;10.326;2022-09-27T08:33:36;3.88;;;1.15;;
59880;SDS011;45751;51.380;10.326;2022-09-27T08:36:10;7.20;;;1.25;;
59880;SDS011;45751;51.380;10.326;2022-09-27T08:38:39;2.63;;;0.82;;
59880;SDS011;45751;51.380;10.326;2022-09-27T08:41:40;2.58;;;0.82;;
59880;SDS011;45751;51.380;10.326;2022-09-27T08:49:15;7.35;;;2.55;;
59880;SDS011;45751;51.380;10.326;2022-09-27T08:51:49;7.07;;;3.03;;
59880;SDS011;45751;51.380;10.326;2022-09-27T08:54:24;3.72;;;1.02;;
59880;SDS011;45751;51.380;10.326;2022-09-27T08:57:08;5.57;;;0.88;;
59880;SDS011;45751;51.380;10.326;2022-09-27T08:59:48;3.22;;;1.00;;
59880;SDS011;45751;51.380;10.326;2022-09-27T09:02:20;3.60;;;1.10;;
59880;SDS011;45751;51.380;10.326;2022-09-27T09:04:53;5.00;;;1.52;;
59880;SDS011;45751;51.380;10.326;2022-09-27T09:07:41;4.47;;;1.02;;
59880;SDS011;45751;51.380;10.326;2022-09-27T09:10:17;4.00;;;1.15;;
59880;SDS011;45751;51.380;10.326;2022-09-27T09:19:06;6.68;;;2.65;;
59880;SDS011;45751;51.380;10.326;2022-09-27T09:30:23;5.00;;;1.50;;
59880;SDS011;45751;51.380;10.326;2022-09-27T09:38:41;4.28;;;1.05;;
59880;SDS011;45751;51.380;10.326;2022-09-27T09:41:15;4.18;;;1.20;;
59880;SDS011;45751;51.380;10.326;2022-09-27T09:46:53;3.75;;;1.10;;
59880;SDS011;45751;51.380;10.326;2022-09-27T09:49:36;6.80;;;1.08;;
59880;SDS011;45751;51.380;10.326;2022-09-27T09:52:12;3.17;;;1.05;;
59880;SDS011;45751;51.380;10.326;2022-09-27T09:54:56;4.13;;;1.10;;
59880;SDS011;45751;51.380;10.326;2022-09-27T09:57:42;4.75;;;1.20;;
59880;SDS011;45751;51.380;10.326;2022-09-27T10:00:21;5.55;;;1.58;;
59880;SDS011;45751;51.380;10.326;2022-09-27T10:02:51;4.53;;;1.35;;
59880;SDS011;45751;51.380;10.326;2022-09-27T10:05:21;5.78;;;1.80;;
59880;SDS011;45751;51.380;10.326;2022-09-27T10:07:59;4.50;;;1.50;;
59880;SDS011;45751;51.380;10.326;2022-09-27T10:10:30;6.35;;;1.92;;
59880;SDS011;45751;51.380;10.326;2022-09-27T10:13:16;5.18;;;1.65;;
59880;SDS011;45751;51.380;10.326;2022-09-27T10:15:53;5.93;;;1.50;;
59880;SDS011;45751;51.380;10.326;2022-09-27T10:18:27;6.43;;;1.70;;
59880;SDS011;45751;51.380;10.326;2022-09-27T10:20:56;7.32;;;1.60;;
59880;SDS011;45751;51.380;10.326;2022-09-27T10:23:27;5.97;;;2.00;;
59880;SDS011;45751;51.380;10.326;2022-09-27T10:26:07;6.70;;;1.55;;
59880;SDS011;45751;51.380;10.326;2022-09-27T10:28:42;6.28;;;2.00;;
59880;SDS011;45751;51.380;10.326;2022-09-27T10:31:13;5.40;;;1.63;;
59880;SDS011;45751;51.380;10.326;2022-09-27T10:34:15;5.93;;;1.80;;
59880;SDS011;45751;51.380;10.326;2022-09-27T10:39:48;4.20;;;1.23;;
59880;SDS011;45751;51.380;10.326;2022-09-27T10:42:21;4.35;;;1.27;;
59880;SDS011;45751;51.380;10.326;2022-09-27T10:48:17;5.45;;;1.50;;
59880;SDS011;45751;51.380;10.326;2022-09-27T10:50:54;7.82;;;1.60;;
59880;SDS011;45751;51.380;10.326;2022-09-27T10:53:48;4.05;;;1.38;;
59880;SDS011;45751;51.380;10.326;2022-09-27T10:56:31;7.70;;;2.08;;
59880;SDS011;45751;51.380;10.326;2022-09-27T10:59:01;6.70;;;1.70;;
59880;SDS011;45751;51.380;10.326;2022-09-27T11:01:37;5.82;;;1.70;;
59880;SDS011;45751;51.380;10.326;2022-09-27T11:04:37;7.82;;;1.92;;
59880;SDS011;45751;51.380;10.326;2022-09-27T11:09:53;5.32;;;1.55;;
59880;SDS011;45751;51.380;10.326;2022-09-27T11:12:30;9.20;;;1.90;;
59880;SDS011;45751;51.380;10.326;2022-09-27T11:15:00;8.20;;;1.98;;
59880;SDS011;45751;51.380;10.326;2022-09-27T11:17:38;7.75;;;2.00;;
59880;SDS011;45751;51.380;10.326;2022-09-27T11:40:57;2.75;;;0.88;;
59880;SDS011;45751;51.380;10.326;2022-09-27T11:46:42;3.13;;;0.80;;
59880;SDS011;45751;51.380;10.326;2022-09-27T11:57:34;3.85;;;1.02;;
59880;SDS011;45751;51.380;10.326;2022-09-27T12:16:46;7.18;;;1.40;;
59880;SDS011;45751;51.380;10.326;2022-09-27T12:19:17;4.43;;;1.23;;
59880;SDS011;45751;51.380;10.326;2022-09-27T12:22:01;4.55;;;1.20;;
59880;SDS011;45751;51.380;10.326;2022-09-27T12:24:35;9.57;;;1.67;;
59880;SDS011;45751;51.380;10.326;2022-09-27T12:27:36;4.55;;;1.20;;
59880;SDS011;45751;51.380;10.326;2022-09-27T12:30:16;3.97;;;1.20;;
59880;SDS011;45751;51.380;10.326;2022-09-27T12:32:48;3.30;;;1.00;;
59880;SDS011;45751;51.380;10.326;2022-09-27T12:35:27;5.00;;;1.50;;
59880;SDS011;45751;51.380;10.326;2022-09-27T12:40:28;4.43;;;1.20;;
59880;SDS011;45751;51.380;10.326;2022-09-27T12:43:13;4.10;;;1.17;;
59880;SDS011;45751;51.380;10.326;2022-09-27T12:51:57;7.25;;;1.17;;
59880;SDS011;45751;51.380;10.326;2022-09-27T13:00:04;4.20;;;0.95;;
59880;SDS011;45751;51.380;10.326;2022-09-27T13:14:29;5.85;;;1.23;;
59880;SDS011;45751;51.380;10.326;2022-09-27T13:17:00;4.72;;;1.40;;
59880;SDS011;45751;51.380;10.326;2022-09-27T13:19:42;4.07;;;1.20;;
59880;SDS011;45751;51.380;10.326;2022-09-27T13:25:02;3.78;;;1.20;;
59880;SDS011;45751;51.380;10.326;2022-09-27T13:27:56;5.32;;;1.40;;
59880;SDS011;45751;51.380;10.326;2022-09-27T13:36:05;6.45;;;1.35;;
59880;SDS011;45751;51.380;10.326;2022-09-27T13:39:18;6.32;;;1.52;;
59880;SDS011;45751;51.380;10.326;2022-09-27T13:42:03;3.90;;;1.00;;
59880;SDS011;45751;51.380;10.326;2022-09-27T13:47:32;3.75;;;1.17;;
59880;SDS011;45751;51.380;10.326;2022-09-27T13:50:15;3.30;;;0.90;;
59880;SDS011;45751;51.380;10.326;2022-09-27T13:53:07;5.25;;;1.20;;
59880;SDS011;45751;51.380;10.326;2022-09-27T13:55:46;3.85;;;0.95;;
59880;SDS011;45751;51.380;10.326;2022-09-27T14:01:50;3.90;;;1.10;;
59880;SDS011;45751;51.380;10.326;2022-09-27T14:04:36;4.05;;;1.00;;
59880;SDS011;45751;51.380;10.326;2022-09-27T14:07:15;4.25;;;0.98;;
59880;SDS011;45751;51.380;10.326;2022-09-27T14:10:11;6.13;;;1.10;;
59880;SDS011;45751;51.380;10.326;2022-09-27T14:12:42;4.32;;;1.10;;
59880;SDS011;45751;51.380;10.326;2022-09-27T14:15:25;3.88;;;1.05;;
59880;SDS011;45751;51.380;10.326;2022-09-27T14:17:56;4.30;;;1.10;;
59880;SDS011;45751;51.380;10.326;2022-09-27T14:20:32;3.55;;;1.00;;
59880;SDS011;45751;51.380;10.326;2022-09-27T14:23:03;5.15;;;1.10;;
59880;SDS011;45751;51.380;10.326;2022-09-27T14:25:43;4.97;;;1.08;;
59880;SDS011;45751;51.380;10.326;2022-09-27T14:28:21;5.05;;;0.90;;
59880;SDS011;45751;51.380;10.326;2022-09-27T14:31:04;3.22;;;0.82;;
59880;SDS011;45751;51.380;10.326;2022-09-27T14:34:07;5.13;;;0.95;;
59880;SDS011;45751;51.380;10.326;2022-09-27T14:36:36;3.22;;;0.90;;
59880;SDS011;45751;51.380;10.326;2022-09-27T14:39:30;3.80;;;1.00;;
59880;SDS011;45751;51.380;10.326;2022-09-27T14:42:04;3.67;;;1.00;;
59880;SDS011;45751;51.380;10.326;2022-09-27T14:44:42;3.65;;;0.90;;
59880;SDS011;45751;51.380;10.326;2022-09-27T14:52:23;4.07;;;1.02;;
59880;SDS011;45751;51.380;10.326;2022-09-27T14:54:54;4.05;;;0.88;;
59880;SDS011;45751;51.380;10.326;2022-09-27T14:57:22;3.45;;;1.00;;
59880;SDS011;45751;51.380;10.326;2022-09-27T14:59:50;4.00;;;0.93;;
59880;SDS011;45751;51.380;10.326;2022-09-27T15:02:18;3.55;;;0.93;;
59880;SDS011;45751;51.380;10.326;2022-09-27T15:04:47;4.45;;;1.20;;
59880;SDS011;45751;51.380;10.326;2022-09-27T15:07:17;4.72;;;1.10;;
59880;SDS011;45751;51.380;10.326;2022-09-27T15:09:45;4.60;;;1.17;;
59880;SDS011;45751;51.380;10.326;2022-09-27T15:12:12;4.32;;;1.10;;
59880;SDS011;45751;51.380;10.326;2022-09-27T15:14:45;4.35;;;1.13;;
59880;SDS011;45751;51.380;10.326;2022-09-27T15:17:19;4.35;;;1.00;;
59880;SDS011;45751;51.380;10.326;2022-09-27T15:20:01;3.78;;;0.95;;
59880;SDS011;45751;51.380;10.326;2022-09-27T15:22:47;4.55;;;1.15;;
59880;SDS011;45751;51.380;10.326;2022-09-27T15:25:18;4.93;;;1.20;;
59880;SDS011;45751;51.380;10.326;2022-09-27T15:27:46;4.82;;;1.17;;
59880;SDS011;45751;51.380;10.326;2022-09-27T15:30:19;8.52;;;1.77;;
59880;SDS011;45751;51.380;10.326;2022-09-27T15:32:55;9.65;;;1.65;;
59880;SDS011;45751;51.380;10.326;2022-09-27T15:35:23;6.05;;;1.75;;
59880;SDS011;45751;51.380;10.326;2022-09-27T15:38:08;5.18;;;1.58;;
59880;SDS011;45751;51.380;10.326;2022-09-27T15:43:22;6.75;;;1.98;;
59880;SDS011;45751;51.380;10.326;2022-09-27T15:45:56;6.30;;;2.03;;
59880;SDS011;45751;51.380;10.326;2022-09-27T15:48:29;5.43;;;1.52;;
59880;SDS011;45751;51.380;10.326;2022-09-27T15:50:57;6.05;;;2.03;;
59880;SDS011;45751;51.380;10.326;2022-09-27T15:56:04;11.73;;;2.42;;
59880;SDS011;45751;51.380;10.326;2022-09-27T15:58:32;6.93;;;1.75;;
59880;SDS011;45751;51.380;10.326;2022-09-27T16:01:01;7.55;;;2.53;;
59880;SDS011;45751;51.380;10.326;2022-09-27T16:03:30;8.02;;;2.40;;
59880;SDS011;45751;51.380;10.326;2022-09-27T16:05:58;7.07;;;2.40;;
59880;SDS011;45751;51.380;10.326;2022-09-27T16:08:27;6.47;;;2.13;;
59880;SDS011;45751;51.380;10.326;2022-09-27T16:10:55;6.47;;;2.10;;
59880;SDS011;45751;51.380;10.326;2022-09-27T16:13:23;7.18;;;2.35;;
59880;SDS011;45751;51.380;10.326;2022-09-27T16:15:57;6.72;;;2.28;;
59880;SDS011;45751;51.380;10.326;2022-09-27T16:18:25;6.18;;;1.90;;
59880;SDS011;45751;51.380;10.326;2022-09-27T16:23:23;4.72;;;1.30;;
59880;SDS011;45751;51.380;10.326;2022-09-27T16:25:51;6.32;;;2.05;;
59880;SDS011;45751;51.380;10.326;2022-09-27T16:28:18;4.97;;;1.70;;
59880;SDS011;45751;51.380;10.326;2022-09-27T16:30:45;6.03;;;1.65;;
59880;SDS011;45751;51.380;10.326;2022-09-27T16:33:13;5.30;;;1.80;;
59880;SDS011;45751;51.380;10.326;2022-09-27T16:35:40;7.90;;;2.40;;
59880;SDS011;45751;51.380;10.326;2022-09-27T16:38:07;7.55;;;2.33;;
59880;SDS011;45751;51.380;10.326;2022-09-27T16:40:34;6.85;;;1.98;;
59880;SDS011;45751;51.380;10.326;2022-09-27T16:43:02;9.85;;;1.90;;
59880;SDS011;45751;51.380;10.326;2022-09-27T16:45:32;6.97;;;1.92;;
59880;SDS011;45751;51.380;10.326;2022-09-27T16:47:59;7.57;;;2.42;;
59880;SDS011;45751;51.380;10.326;2022-09-27T16:50:27;7.28;;;1.90;;
59880;SDS011;45751;51.380;10.326;2022-09-27T16:53:12;10.82;;;3.72;;
59880;SDS011;45751;51.380;10.326;2022-09-27T16:55:39;6.65;;;2.63;;
59880;SDS011;45751;51.380;10.326;2022-09-27T16:58:05;6.43;;;1.80;;
59880;SDS011;45751;51.380;10.326;2022-09-27T17:00:33;7.18;;;1.85;;
59880;SDS011;45751;51.380;10.326;2022-09-27T17:03:00;6.50;;;1.92;;
59880;SDS011;45751;51.380;10.326;2022-09-27T17:05:27;7.55;;;2.45;;
59880;SDS011;45751;51.380;10.326;2022-09-27T17:07:54;6.88;;;2.25;;
59880;SDS011;45751;51.380;10.326;2022-09-27T17:10:21;5.95;;;2.05;;
59880;SDS011;45751;51.380;10.326;2022-09-27T17:12:48;7.32;;;1.92;;
59880;SDS011;45751;51.380;10.326;2022-09-27T17:15:15;7.28;;;2.60;;
59880;SDS011;45751;51.380;10.326;2022-09-27T17:17:43;5.72;;;2.15;;
59880;SDS011;45751;51.380;10.326;2022-09-27T17:20:13;6.03;;;2.40;;
59880;SDS011;45751;51.380;10.326;2022-09-27T17:22:40;6.65;;;2.20;;
59880;SDS011;45751;51.380;10.326;2022-09-27T17:25:07;7.38;;;2.33;;
59880;SDS011;45751;51.380;10.326;2022-09-27T17:27:34;6.18;;;2.28;;
59880;SDS011;45751;51.380;10.326;2022-09-27T17:30:00;6.38;;;2.20;;
59880;SDS011;45751;51.380;10.326;2022-09-27T17:32:27;7.85;;;2.05;;
59880;SDS011;45751;51.380;10.326;2022-09-27T17:34:54;6.85;;;2.38;;
59880;SDS011;45751;51.380;10.326;2022-09-27T17:37:24;6.07;;;2.30;;
59880;SDS011;45751;51.380;10.326;2022-09-27T17:39:51;6.82;;;2.72;;
59880;SDS011;45751;51.380;10.326;2022-09-27T17:42:17;7.15;;;2.40;;
59880;SDS011;45751;51.380;10.326;2022-09-27T17:44:44;8.93;;;3.20;;
59880;SDS011;45751;51.380;10.326;2022-09-27T17:47:11;6.78;;;2.42;;
59880;SDS011;45751;51.380;10.326;2022-09-27T17:49:57;7.47;;;1.90;;
59880;SDS011;45751;51.380;10.326;2022-09-27T17:52:42;6.28;;;2.20;;
59880;SDS011;45751;51.380;10.326;2022-09-27T17:55:09;6.43;;;2.25;;
59880;SDS011;45751;51.380;10.326;2022-09-27T17:57:36;5.50;;;2.25;;
59880;SDS011;45751;51.380;10.326;2022-09-27T18:00:03;5.63;;;2.25;;
59880;SDS011;45751;51.380;10.326;2022-09-27T18:02:37;6.75;;;2.08;;
59880;SDS011;45751;51.380;10.326;2022-09-27T18:05:05;6.28;;;2.15;;
59880;SDS011;45751;51.380;10.326;2022-09-27T18:07:32;7.45;;;1.70;;
59880;SDS011;45751;51.380;10.326;2022-09-27T18:09:59;6.95;;;2.33;;
59880;SDS011;45751;51.380;10.326;2022-09-27T18:12:28;5.88;;;1.88;;
59880;SDS011;45751;51.380;10.326;2022-09-27T18:15:00;6.07;;;1.95;;
59880;SDS011;45751;51.380;10.326;2022-09-27T18:17:27;5.03;;;1.70;;